Almirante Schroeders Airport

SCDW · Region of Magallanes, 智利

使用的METAR站距离机场72 km。
罗盘
风向 的 风向 250° Almirante Schroeders Airport 12/30
风: 9 kt, 3 beaufort

3 kt

8 kt
改变
0 ft 1.000 2.000 3.000 4.000 5.000
CAVOK
METAR SCCI 240000Z 25009KT CAVOK 10/02 Q1019 NOSIG

METAR Almirante Schroeders Airport - SCDW

Almirante Schroeders Airport是,智利中的小机场。 该机场位于纬度-53,60996和经度-70,47595。 该机场有2条跑道: 12/30 和 4/22. 本场的ICAO机场代码为SCDW。 机场在Punta Arenas FIR中。

该航空气象观测是针对Pdte. Carlos Ibañez del Campo Airport在2024年2月23日 21:00, 当地时间进行的。

机场观察

风向为250°,速度为9 kt。

天气为CAVOK。这意味着在5.000 ft或MSA(最低安全高度)以下(以较高者为准)以下没有云。这也意味着没有观测到积雨云或高耸的积云,可见度为10 km 或者更多或更高。此外,不会有雾,降雨或其他重要天气。

温度为10 °C,阵风为7 °C。 露点为2 °C,相对湿度为58%。 海平面上的气压为1019 hPa (QNH)。

白天

今天,太阳从06:56升起,在20:53降落。 这适用于Almirante Schroeders Airport,世界夏令时可能有所不同。 当地时间与世界标准时间之间的时差为-3 小时。 当前,没有夏令时有效。

公司介绍

我们没有关于这个机场的公司信息。

体会

到Vliegles.nl去找飞行课程,跳伞和其他飞行体验。 浏览页面,了解Almirante Schroeders Airport附近所有可用的活动。 你也可以使用搜索功能来寻找你所在地附近的特定飞行课程、跳伞或其他飞行体验。

跑道

Id 标题 侧风 逆风 侧风 %
12/30 138°-318° 8 kt 3 kt 93 %
4/22 052°-232° 3 kt 9 kt 31 %

逆风成分最大的方向会被突出显示,并用于横风计算。 这并不一定意味着这个方向在使用。

温度 & 天气

温度 10 °C
露点 2 °C
相对湿度 58%
风寒 7 °C
Kp-index 1 (0-9)

白天

日出
06:59 (9:08)
中午
13:56
日落
20:53

小工具

你想在你的网站上有一个关于Almirante Schroeders Airport的当前航空天气(METAR)的小部件吗?

显示HTML代码
?>